sensor_id;sensor_type;location;lat;lon;timestamp;P1;durP1;ratioP1;P2;durP2;ratioP2
23802;SDS011;12082;51.786;6.018;2023-02-18T00:01:53;57.17;;;36.53;;
23802;SDS011;12082;51.786;6.018;2023-02-18T00:04:19;61.50;;;37.17;;
23802;SDS011;12082;51.786;6.018;2023-02-18T00:06:44;61.10;;;36.90;;
23802;SDS011;12082;51.786;6.018;2023-02-18T00:09:10;57.00;;;36.93;;
23802;SDS011;12082;51.786;6.018;2023-02-18T00:11:36;62.77;;;35.47;;
23802;SDS011;12082;51.786;6.018;2023-02-18T00:14:03;72.87;;;37.63;;
23802;SDS011;12082;51.786;6.018;2023-02-18T00:16:31;57.37;;;35.93;;
23802;SDS011;12082;51.786;6.018;2023-02-18T00:18:57;61.10;;;35.03;;
23802;SDS011;12082;51.786;6.018;2023-02-18T00:21:28;70.17;;;40.83;;
23802;SDS011;12082;51.786;6.018;2023-02-18T00:23:54;61.90;;;38.87;;
23802;SDS011;12082;51.786;6.018;2023-02-18T00:26:20;64.57;;;38.43;;
23802;SDS011;12082;51.786;6.018;2023-02-18T00:28:46;67.10;;;38.50;;
23802;SDS011;12082;51.786;6.018;2023-02-18T00:31:16;65.83;;;38.50;;
23802;SDS011;12082;51.786;6.018;2023-02-18T00:33:43;67.13;;;37.63;;
23802;SDS011;12082;51.786;6.018;2023-02-18T00:36:11;59.57;;;38.37;;
23802;SDS011;12082;51.786;6.018;2023-02-18T00:38:38;69.40;;;37.20;;
23802;SDS011;12082;51.786;6.018;2023-02-18T00:41:07;61.90;;;36.07;;
23802;SDS011;12082;51.786;6.018;2023-02-18T00:43:32;65.80;;;36.63;;
23802;SDS011;12082;51.786;6.018;2023-02-18T00:45:58;63.07;;;35.47;;
23802;SDS011;12082;51.786;6.018;2023-02-18T00:48:24;69.20;;;36.83;;
23802;SDS011;12082;51.786;6.018;2023-02-18T00:50:49;61.53;;;36.23;;
23802;SDS011;12082;51.786;6.018;2023-02-18T00:53:15;56.03;;;36.03;;
23802;SDS011;12082;51.786;6.018;2023-02-18T00:55:44;80.47;;;37.67;;
23802;SDS011;12082;51.786;6.018;2023-02-18T00:58:11;67.03;;;37.23;;
23802;SDS011;12082;51.786;6.018;2023-02-18T01:00:38;57.50;;;36.03;;
23802;SDS011;12082;51.786;6.018;2023-02-18T01:03:05;56.07;;;35.77;;
23802;SDS011;12082;51.786;6.018;2023-02-18T01:05:35;64.03;;;36.47;;
23802;SDS011;12082;51.786;6.018;2023-02-18T01:08:01;58.30;;;36.37;;
23802;SDS011;12082;51.786;6.018;2023-02-18T01:10:27;66.77;;;36.37;;
23802;SDS011;12082;51.786;6.018;2023-02-18T01:12:53;67.10;;;36.20;;
23802;SDS011;12082;51.786;6.018;2023-02-18T01:15:19;54.13;;;33.53;;
23802;SDS011;12082;51.786;6.018;2023-02-18T01:17:45;69.40;;;33.37;;
23802;SDS011;12082;51.786;6.018;2023-02-18T01:20:11;60.90;;;35.23;;
23802;SDS011;12082;51.786;6.018;2023-02-18T01:22:38;62.83;;;36.50;;
23802;SDS011;12082;51.786;6.018;2023-02-18T01:25:04;57.70;;;35.50;;
23802;SDS011;12082;51.786;6.018;2023-02-18T01:27:30;63.67;;;35.63;;
23802;SDS011;12082;51.786;6.018;2023-02-18T01:29:55;59.33;;;35.37;;
23802;SDS011;12082;51.786;6.018;2023-02-18T01:32:21;62.67;;;34.27;;
23802;SDS011;12082;51.786;6.018;2023-02-18T01:34:47;64.07;;;35.37;;
23802;SDS011;12082;51.786;6.018;2023-02-18T01:37:12;60.30;;;35.87;;
23802;SDS011;12082;51.786;6.018;2023-02-18T01:39:38;54.30;;;34.80;;
23802;SDS011;12082;51.786;6.018;2023-02-18T01:42:04;64.80;;;37.00;;
23802;SDS011;12082;51.786;6.018;2023-02-18T01:44:31;62.60;;;36.43;;
23802;SDS011;12082;51.786;6.018;2023-02-18T01:46:58;57.70;;;35.00;;
23802;SDS011;12082;51.786;6.018;2023-02-18T01:49:25;64.40;;;36.97;;
23802;SDS011;12082;51.786;6.018;2023-02-18T01:51:58;63.33;;;37.23;;
23802;SDS011;12082;51.786;6.018;2023-02-18T01:54:30;61.60;;;36.10;;
23802;SDS011;12082;51.786;6.018;2023-02-18T01:57:04;64.60;;;36.17;;
23802;SDS011;12082;51.786;6.018;2023-02-18T01:59:33;60.67;;;36.53;;
23802;SDS011;12082;51.786;6.018;2023-02-18T02:02:03;63.27;;;35.17;;
23802;SDS011;12082;51.786;6.018;2023-02-18T02:04:31;62.83;;;37.40;;
23802;SDS011;12082;51.786;6.018;2023-02-18T02:06:57;68.87;;;39.80;;
23802;SDS011;12082;51.786;6.018;2023-02-18T02:09:23;71.47;;;38.93;;
23802;SDS011;12082;51.786;6.018;2023-02-18T02:25:55;76.30;;;42.00;;
23802;SDS011;12082;51.786;6.018;2023-02-18T02:34:30;86.47;;;42.60;;
23802;SDS011;12082;51.786;6.018;2023-02-18T02:36:56;84.53;;;40.77;;
23802;SDS011;12082;51.786;6.018;2023-02-18T02:39:37;86.33;;;42.20;;
23802;SDS011;12082;51.786;6.018;2023-02-18T02:45:23;80.27;;;38.97;;
23802;SDS011;12082;51.786;6.018;2023-02-18T02:48:02;78.20;;;38.53;;
23802;SDS011;12082;51.786;6.018;2023-02-18T02:50:54;83.77;;;40.47;;
23802;SDS011;12082;51.786;6.018;2023-02-18T02:53:22;77.83;;;38.93;;
23802;SDS011;12082;51.786;6.018;2023-02-18T02:55:51;75.43;;;36.83;;
23802;SDS011;12082;51.786;6.018;2023-02-18T02:58:17;81.50;;;37.40;;
23802;SDS011;12082;51.786;6.018;2023-02-18T03:00:49;73.17;;;35.13;;
23802;SDS011;12082;51.786;6.018;2023-02-18T03:06:16;76.90;;;36.37;;
23802;SDS011;12082;51.786;6.018;2023-02-18T03:09:13;81.90;;;34.60;;
23802;SDS011;12082;51.786;6.018;2023-02-18T03:14:43;83.43;;;35.03;;
23802;SDS011;12082;51.786;6.018;2023-02-18T03:17:15;87.67;;;34.73;;
23802;SDS011;12082;51.786;6.018;2023-02-18T03:19:46;91.93;;;36.97;;
23802;SDS011;12082;51.786;6.018;2023-02-18T03:22:43;82.40;;;33.87;;
23802;SDS011;12082;51.786;6.018;2023-02-18T03:25:12;86.67;;;35.57;;
23802;SDS011;12082;51.786;6.018;2023-02-18T03:27:41;91.63;;;37.17;;
23802;SDS011;12082;51.786;6.018;2023-02-18T03:30:15;79.47;;;33.37;;
23802;SDS011;12082;51.786;6.018;2023-02-18T03:32:47;71.93;;;32.27;;
23802;SDS011;12082;51.786;6.018;2023-02-18T03:35:16;74.53;;;30.13;;
23802;SDS011;12082;51.786;6.018;2023-02-18T03:37:47;72.80;;;31.87;;
23802;SDS011;12082;51.786;6.018;2023-02-18T03:40:34;69.80;;;29.07;;
23802;SDS011;12082;51.786;6.018;2023-02-18T03:43:00;66.73;;;27.80;;
23802;SDS011;12082;51.786;6.018;2023-02-18T03:45:26;57.93;;;28.10;;
23802;SDS011;12082;51.786;6.018;2023-02-18T03:47:52;63.20;;;26.80;;
23802;SDS011;12082;51.786;6.018;2023-02-18T03:50:18;57.30;;;25.37;;
23802;SDS011;12082;51.786;6.018;2023-02-18T03:52:44;55.37;;;26.37;;
23802;SDS011;12082;51.786;6.018;2023-02-18T03:55:10;48.80;;;23.90;;
23802;SDS011;12082;51.786;6.018;2023-02-18T03:57:36;54.30;;;25.03;;
23802;SDS011;12082;51.786;6.018;2023-02-18T04:00:02;50.50;;;21.93;;
23802;SDS011;12082;51.786;6.018;2023-02-18T04:02:30;50.30;;;21.77;;
23802;SDS011;12082;51.786;6.018;2023-02-18T04:04:56;47.57;;;21.87;;
23802;SDS011;12082;51.786;6.018;2023-02-18T04:07:22;51.57;;;21.50;;
23802;SDS011;12082;51.786;6.018;2023-02-18T04:09:47;38.57;;;20.60;;
23802;SDS011;12082;51.786;6.018;2023-02-18T04:12:13;36.67;;;20.23;;
23802;SDS011;12082;51.786;6.018;2023-02-18T04:14:38;35.00;;;20.17;;
23802;SDS011;12082;51.786;6.018;2023-02-18T04:17:04;37.07;;;18.97;;
23802;SDS011;12082;51.786;6.018;2023-02-18T04:19:29;32.87;;;17.50;;
23802;SDS011;12082;51.786;6.018;2023-02-18T04:21:55;32.73;;;17.33;;
23802;SDS011;12082;51.786;6.018;2023-02-18T04:24:20;30.93;;;16.70;;
23802;SDS011;12082;51.786;6.018;2023-02-18T04:26:46;30.77;;;17.10;;
23802;SDS011;12082;51.786;6.018;2023-02-18T04:29:12;26.43;;;15.23;;
23802;SDS011;12082;51.786;6.018;2023-02-18T04:31:38;26.60;;;15.00;;
23802;SDS011;12082;51.786;6.018;2023-02-18T04:34:05;26.53;;;14.57;;
23802;SDS011;12082;51.786;6.018;2023-02-18T04:36:32;24.10;;;14.00;;
23802;SDS011;12082;51.786;6.018;2023-02-18T04:38:58;21.10;;;13.40;;
23802;SDS011;12082;51.786;6.018;2023-02-18T04:41:24;23.27;;;14.13;;
23802;SDS011;12082;51.786;6.018;2023-02-18T04:43:50;21.43;;;12.00;;
23802;SDS011;12082;51.786;6.018;2023-02-18T04:46:16;20.00;;;12.50;;
23802;SDS011;12082;51.786;6.018;2023-02-18T04:48:42;21.70;;;12.20;;
23802;SDS011;12082;51.786;6.018;2023-02-18T04:51:08;21.70;;;12.73;;
23802;SDS011;12082;51.786;6.018;2023-02-18T04:53:34;22.67;;;11.87;;
23802;SDS011;12082;51.786;6.018;2023-02-18T04:56:00;19.53;;;11.33;;
23802;SDS011;12082;51.786;6.018;2023-02-18T04:58:26;20.07;;;11.30;;
23802;SDS011;12082;51.786;6.018;2023-02-18T05:00:52;17.87;;;10.73;;
23802;SDS011;12082;51.786;6.018;2023-02-18T05:03:18;17.37;;;10.63;;
23802;SDS011;12082;51.786;6.018;2023-02-18T05:05:44;18.53;;;11.07;;
23802;SDS011;12082;51.786;6.018;2023-02-18T05:08:10;19.30;;;10.87;;
23802;SDS011;12082;51.786;6.018;2023-02-18T05:10:37;18.60;;;10.57;;
23802;SDS011;12082;51.786;6.018;2023-02-18T05:13:03;16.57;;;10.03;;
23802;SDS011;12082;51.786;6.018;2023-02-18T05:15:29;17.43;;;9.97;;
23802;SDS011;12082;51.786;6.018;2023-02-18T05:17:55;15.07;;;10.20;;
23802;SDS011;12082;51.786;6.018;2023-02-18T05:20:21;15.57;;;10.23;;
23802;SDS011;12082;51.786;6.018;2023-02-18T05:22:47;15.07;;;10.27;;
23802;SDS011;12082;51.786;6.018;2023-02-18T05:25:13;16.27;;;10.93;;
23802;SDS011;12082;51.786;6.018;2023-02-18T05:27:43;11.50;;;8.73;;
23802;SDS011;12082;51.786;6.018;2023-02-18T05:30:12;13.77;;;8.90;;
23802;SDS011;12082;51.786;6.018;2023-02-18T05:32:40;14.10;;;9.77;;
23802;SDS011;12082;51.786;6.018;2023-02-18T05:35:07;12.23;;;9.13;;
23802;SDS011;12082;51.786;6.018;2023-02-18T05:37:35;16.13;;;9.47;;
23802;SDS011;12082;51.786;6.018;2023-02-18T05:40:03;12.60;;;9.47;;
23802;SDS011;12082;51.786;6.018;2023-02-18T05:42:29;14.73;;;10.00;;
23802;SDS011;12082;51.786;6.018;2023-02-18T05:44:54;14.23;;;9.07;;
23802;SDS011;12082;51.786;6.018;2023-02-18T05:47:20;15.80;;;9.50;;
23802;SDS011;12082;51.786;6.018;2023-02-18T05:49:45;13.73;;;8.77;;
23802;SDS011;12082;51.786;6.018;2023-02-18T05:52:11;14.47;;;9.00;;
23802;SDS011;12082;51.786;6.018;2023-02-18T05:54:37;12.57;;;9.07;;
23802;SDS011;12082;51.786;6.018;2023-02-18T05:57:02;12.33;;;9.07;;
23802;SDS011;12082;51.786;6.018;2023-02-18T05:59:28;12.33;;;8.43;;
23802;SDS011;12082;51.786;6.018;2023-02-18T06:01:54;12.93;;;8.80;;
23802;SDS011;12082;51.786;6.018;2023-02-18T06:04:20;10.30;;;8.60;;
23802;SDS011;12082;51.786;6.018;2023-02-18T06:06:46;11.03;;;8.73;;
23802;SDS011;12082;51.786;6.018;2023-02-18T06:09:11;11.70;;;8.03;;
23802;SDS011;12082;51.786;6.018;2023-02-18T06:11:37;11.13;;;9.07;;
23802;SDS011;12082;51.786;6.018;2023-02-18T06:14:02;12.03;;;8.70;;
23802;SDS011;12082;51.786;6.018;2023-02-18T06:16:29;12.00;;;9.13;;
23802;SDS011;12082;51.786;6.018;2023-02-18T06:18:54;12.37;;;9.17;;
23802;SDS011;12082;51.786;6.018;2023-02-18T06:21:20;14.97;;;10.43;;
23802;SDS011;12082;51.786;6.018;2023-02-18T06:23:46;13.93;;;10.00;;
23802;SDS011;12082;51.786;6.018;2023-02-18T06:26:11;15.63;;;10.73;;
23802;SDS011;12082;51.786;6.018;2023-02-18T06:28:37;16.73;;;10.87;;
23802;SDS011;12082;51.786;6.018;2023-02-18T06:31:02;12.67;;;9.53;;
23802;SDS011;12082;51.786;6.018;2023-02-18T06:33:28;13.20;;;9.40;;
23802;SDS011;12082;51.786;6.018;2023-02-18T06:35:58;13.70;;;10.33;;
23802;SDS011;12082;51.786;6.018;2023-02-18T06:38:31;14.63;;;9.67;;
23802;SDS011;12082;51.786;6.018;2023-02-18T06:40:57;15.47;;;10.17;;
23802;SDS011;12082;51.786;6.018;2023-02-18T06:43:23;16.57;;;10.30;;
23802;SDS011;12082;51.786;6.018;2023-02-18T06:45:49;18.27;;;10.60;;
23802;SDS011;12082;51.786;6.018;2023-02-18T06:48:15;15.87;;;10.70;;
23802;SDS011;12082;51.786;6.018;2023-02-18T06:50:40;16.13;;;11.00;;
23802;SDS011;12082;51.786;6.018;2023-02-18T06:53:07;18.13;;;11.10;;
23802;SDS011;12082;51.786;6.018;2023-02-18T06:55:32;15.03;;;10.57;;
23802;SDS011;12082;51.786;6.018;2023-02-18T06:57:58;17.57;;;9.43;;
23802;SDS011;12082;51.786;6.018;2023-02-18T07:00:23;16.17;;;10.73;;
23802;SDS011;12082;51.786;6.018;2023-02-18T07:02:49;16.27;;;10.47;;
23802;SDS011;12082;51.786;6.018;2023-02-18T07:05:15;13.93;;;10.23;;
23802;SDS011;12082;51.786;6.018;2023-02-18T07:07:40;17.87;;;10.73;;
23802;SDS011;12082;51.786;6.018;2023-02-18T07:10:06;14.73;;;10.57;;
23802;SDS011;12082;51.786;6.018;2023-02-18T07:12:32;16.80;;;10.20;;
23802;SDS011;12082;51.786;6.018;2023-02-18T07:14:58;17.77;;;11.17;;
23802;SDS011;12082;51.786;6.018;2023-02-18T07:17:24;17.30;;;10.90;;
23802;SDS011;12082;51.786;6.018;2023-02-18T07:19:49;17.17;;;10.97;;
23802;SDS011;12082;51.786;6.018;2023-02-18T07:22:15;16.53;;;11.13;;
23802;SDS011;12082;51.786;6.018;2023-02-18T07:24:41;16.17;;;10.47;;
23802;SDS011;12082;51.786;6.018;2023-02-18T07:27:07;17.80;;;11.43;;
23802;SDS011;12082;51.786;6.018;2023-02-18T07:29:32;19.17;;;12.07;;
23802;SDS011;12082;51.786;6.018;2023-02-18T07:31:58;19.03;;;11.70;;
23802;SDS011;12082;51.786;6.018;2023-02-18T07:34:23;20.37;;;11.90;;
23802;SDS011;12082;51.786;6.018;2023-02-18T07:36:49;16.97;;;11.07;;
23802;SDS011;12082;51.786;6.018;2023-02-18T07:39:15;14.43;;;11.50;;
23802;SDS011;12082;51.786;6.018;2023-02-18T07:41:44;18.30;;;11.47;;
23802;SDS011;12082;51.786;6.018;2023-02-18T07:44:13;15.67;;;10.50;;
23802;SDS011;12082;51.786;6.018;2023-02-18T07:46:42;18.13;;;12.07;;
23802;SDS011;12082;51.786;6.018;2023-02-18T07:49:07;14.43;;;10.87;;
23802;SDS011;12082;51.786;6.018;2023-02-18T07:51:34;16.27;;;10.20;;
23802;SDS011;12082;51.786;6.018;2023-02-18T07:54:01;17.10;;;10.57;;
23802;SDS011;12082;51.786;6.018;2023-02-18T07:56:27;16.87;;;11.20;;
23802;SDS011;12082;51.786;6.018;2023-02-18T07:58:52;16.97;;;11.17;;
23802;SDS011;12082;51.786;6.018;2023-02-18T08:01:18;15.73;;;10.93;;
23802;SDS011;12082;51.786;6.018;2023-02-18T08:03:43;15.27;;;11.20;;
23802;SDS011;12082;51.786;6.018;2023-02-18T08:06:18;17.67;;;11.30;;
23802;SDS011;12082;51.786;6.018;2023-02-18T08:08:51;19.50;;;12.63;;
23802;SDS011;12082;51.786;6.018;2023-02-18T08:11:16;22.83;;;14.30;;
23802;SDS011;12082;51.786;6.018;2023-02-18T08:13:42;23.07;;;12.80;;
23802;SDS011;12082;51.786;6.018;2023-02-18T08:16:08;19.90;;;13.47;;
23802;SDS011;12082;51.786;6.018;2023-02-18T08:18:34;23.43;;;13.60;;
23802;SDS011;12082;51.786;6.018;2023-02-18T08:20:59;24.57;;;14.33;;
23802;SDS011;12082;51.786;6.018;2023-02-18T08:23:25;24.40;;;13.97;;
23802;SDS011;12082;51.786;6.018;2023-02-18T08:25:51;26.80;;;14.43;;
23802;SDS011;12082;51.786;6.018;2023-02-18T08:28:18;29.33;;;16.53;;
23802;SDS011;12082;51.786;6.018;2023-02-18T08:30:46;30.23;;;15.40;;
23802;SDS011;12082;51.786;6.018;2023-02-18T08:33:12;27.60;;;14.50;;
23802;SDS011;12082;51.786;6.018;2023-02-18T08:35:38;25.20;;;16.67;;
23802;SDS011;12082;51.786;6.018;2023-02-18T08:38:04;27.37;;;16.50;;
23802;SDS011;12082;51.786;6.018;2023-02-18T08:40:29;29.07;;;17.07;;
23802;SDS011;12082;51.786;6.018;2023-02-18T08:42:55;27.27;;;15.97;;
23802;SDS011;12082;51.786;6.018;2023-02-18T08:45:20;26.83;;;16.03;;
23802;SDS011;12082;51.786;6.018;2023-02-18T08:47:46;24.67;;;15.13;;
23802;SDS011;12082;51.786;6.018;2023-02-18T08:50:12;28.93;;;16.40;;
23802;SDS011;12082;51.786;6.018;2023-02-18T08:52:37;29.23;;;16.93;;
23802;SDS011;12082;51.786;6.018;2023-02-18T08:55:03;27.47;;;15.63;;
23802;SDS011;12082;51.786;6.018;2023-02-18T08:57:29;31.47;;;18.83;;
23802;SDS011;12082;51.786;6.018;2023-02-18T08:59:55;29.23;;;15.53;;
23802;SDS011;12082;51.786;6.018;2023-02-18T09:02:21;28.30;;;16.50;;
23802;SDS011;12082;51.786;6.018;2023-02-18T09:04:46;26.17;;;15.07;;
23802;SDS011;12082;51.786;6.018;2023-02-18T09:07:12;26.60;;;16.20;;
23802;SDS011;12082;51.786;6.018;2023-02-18T09:09:38;25.80;;;15.30;;
23802;SDS011;12082;51.786;6.018;2023-02-18T09:12:03;20.97;;;15.17;;
23802;SDS011;12082;51.786;6.018;2023-02-18T09:14:29;25.63;;;14.83;;
23802;SDS011;12082;51.786;6.018;2023-02-18T09:16:55;30.60;;;15.77;;
23802;SDS011;12082;51.786;6.018;2023-02-18T09:19:22;31.73;;;15.30;;
23802;SDS011;12082;51.786;6.018;2023-02-18T09:21:48;23.30;;;16.07;;
23802;SDS011;12082;51.786;6.018;2023-02-18T09:24:14;35.07;;;15.77;;
23802;SDS011;12082;51.786;6.018;2023-02-18T09:26:39;26.23;;;15.67;;
23802;SDS011;12082;51.786;6.018;2023-02-18T09:29:05;23.70;;;15.77;;
23802;SDS011;12082;51.786;6.018;2023-02-18T09:31:30;32.10;;;16.40;;
23802;SDS011;12082;51.786;6.018;2023-02-18T09:34:00;26.30;;;16.57;;
23802;SDS011;12082;51.786;6.018;2023-02-18T09:36:26;29.17;;;16.23;;
23802;SDS011;12082;51.786;6.018;2023-02-18T09:38:52;26.33;;;16.30;;
23802;SDS011;12082;51.786;6.018;2023-02-18T09:41:23;25.87;;;16.60;;
23802;SDS011;12082;51.786;6.018;2023-02-18T09:44:00;33.23;;;16.20;;
23802;SDS011;12082;51.786;6.018;2023-02-18T09:46:32;21.37;;;15.87;;
23802;SDS011;12082;51.786;6.018;2023-02-18T09:49:02;38.67;;;18.00;;
23802;SDS011;12082;51.786;6.018;2023-02-18T09:51:31;29.80;;;16.00;;
23802;SDS011;12082;51.786;6.018;2023-02-18T09:53:56;21.17;;;15.57;;
23802;SDS011;12082;51.786;6.018;2023-02-18T09:56:26;27.03;;;16.20;;
23802;SDS011;12082;51.786;6.018;2023-02-18T09:58:56;33.80;;;17.50;;
23802;SDS011;12082;51.786;6.018;2023-02-18T10:01:27;30.53;;;15.87;;
23802;SDS011;12082;51.786;6.018;2023-02-18T10:04:03;29.33;;;16.90;;
23802;SDS011;12082;51.786;6.018;2023-02-18T10:06:35;34.60;;;16.37;;
23802;SDS011;12082;51.786;6.018;2023-02-18T10:09:02;22.27;;;15.00;;
23802;SDS011;12082;51.786;6.018;2023-02-18T10:14:50;17.73;;;14.37;;
23802;SDS011;12082;51.786;6.018;2023-02-18T10:17:19;29.27;;;15.93;;
23802;SDS011;12082;51.786;6.018;2023-02-18T10:19:47;27.90;;;14.93;;
23802;SDS011;12082;51.786;6.018;2023-02-18T10:22:14;24.70;;;14.77;;
23802;SDS011;12082;51.786;6.018;2023-02-18T10:27:22;30.63;;;16.47;;
23802;SDS011;12082;51.786;6.018;2023-02-18T10:30:15;29.83;;;14.63;;
23802;SDS011;12082;51.786;6.018;2023-02-18T10:32:45;29.77;;;13.87;;
23802;SDS011;12082;51.786;6.018;2023-02-18T10:35:33;24.53;;;13.93;;
23802;SDS011;12082;51.786;6.018;2023-02-18T10:43:59;21.13;;;14.40;;
23802;SDS011;12082;51.786;6.018;2023-02-18T10:46:54;19.63;;;13.47;;
23802;SDS011;12082;51.786;6.018;2023-02-18T10:51:55;23.40;;;13.30;;
23802;SDS011;12082;51.786;6.018;2023-02-18T10:54:26;23.83;;;12.50;;
23802;SDS011;12082;51.786;6.018;2023-02-18T10:57:14;25.63;;;12.53;;
23802;SDS011;12082;51.786;6.018;2023-02-18T10:59:45;23.17;;;13.97;;
23802;SDS011;12082;51.786;6.018;2023-02-18T11:02:23;27.73;;;14.47;;
23802;SDS011;12082;51.786;6.018;2023-02-18T11:04:53;14.90;;;12.20;;
23802;SDS011;12082;51.786;6.018;2023-02-18T11:07:21;19.77;;;14.07;;
23802;SDS011;12082;51.786;6.018;2023-02-18T11:09:54;17.13;;;12.97;;
23802;SDS011;12082;51.786;6.018;2023-02-18T11:12:22;14.63;;;13.10;;
23802;SDS011;12082;51.786;6.018;2023-02-18T11:15:15;22.17;;;12.20;;
23802;SDS011;12082;51.786;6.018;2023-02-18T11:17:43;22.97;;;12.73;;
23802;SDS011;12082;51.786;6.018;2023-02-18T11:25:39;19.00;;;13.97;;
23802;SDS011;12082;51.786;6.018;2023-02-18T11:30:42;18.30;;;12.50;;
23802;SDS011;12082;51.786;6.018;2023-02-18T11:35:48;15.87;;;13.27;;
23802;SDS011;12082;51.786;6.018;2023-02-18T11:38:22;20.77;;;12.70;;
23802;SDS011;12082;51.786;6.018;2023-02-18T11:41:15;21.80;;;13.33;;
23802;SDS011;12082;51.786;6.018;2023-02-18T11:43:47;23.50;;;13.47;;
23802;SDS011;12082;51.786;6.018;2023-02-18T11:46:22;19.57;;;13.87;;
23802;SDS011;12082;51.786;6.018;2023-02-18T11:48:49;24.50;;;12.70;;
23802;SDS011;12082;51.786;6.018;2023-02-18T11:51:32;26.10;;;13.00;;
23802;SDS011;12082;51.786;6.018;2023-02-18T11:54:03;17.17;;;12.20;;
23802;SDS011;12082;51.786;6.018;2023-02-18T11:56:45;25.43;;;12.10;;
23802;SDS011;12082;51.786;6.018;2023-02-18T11:59:29;23.03;;;12.53;;
23802;SDS011;12082;51.786;6.018;2023-02-18T12:04:42;21.30;;;12.50;;
23802;SDS011;12082;51.786;6.018;2023-02-18T12:07:19;19.53;;;10.80;;
23802;SDS011;12082;51.786;6.018;2023-02-18T12:09:50;17.53;;;11.23;;
23802;SDS011;12082;51.786;6.018;2023-02-18T12:14:56;15.13;;;11.47;;
23802;SDS011;12082;51.786;6.018;2023-02-18T12:17:40;23.83;;;11.60;;
23802;SDS011;12082;51.786;6.018;2023-02-18T12:25:39;24.50;;;12.27;;
23802;SDS011;12082;51.786;6.018;2023-02-18T12:39:38;24.40;;;12.40;;
23802;SDS011;12082;51.786;6.018;2023-02-18T12:45:13;13.80;;;11.00;;
23802;SDS011;12082;51.786;6.018;2023-02-18T12:51:30;15.77;;;12.00;;
23802;SDS011;12082;51.786;6.018;2023-02-18T12:54:26;14.23;;;11.73;;
23802;SDS011;12082;51.786;6.018;2023-02-18T13:05:52;17.13;;;10.70;;
23802;SDS011;12082;51.786;6.018;2023-02-18T13:08:25;14.90;;;10.90;;
23802;SDS011;12082;51.786;6.018;2023-02-18T13:11:03;26.03;;;10.83;;
23802;SDS011;12082;51.786;6.018;2023-02-18T13:13:34;17.03;;;11.53;;
23802;SDS011;12082;51.786;6.018;2023-02-18T13:16:05;15.57;;;11.30;;
23802;SDS011;12082;51.786;6.018;2023-02-18T13:18:38;18.43;;;10.73;;
23802;SDS011;12082;51.786;6.018;2023-02-18T13:21:14;15.40;;;12.10;;
23802;SDS011;12082;51.786;6.018;2023-02-18T13:26:30;16.77;;;12.23;;
23802;SDS011;12082;51.786;6.018;2023-02-18T13:31:46;17.37;;;12.10;;
23802;SDS011;12082;51.786;6.018;2023-02-18T13:34:27;14.83;;;10.83;;
23802;SDS011;12082;51.786;6.018;2023-02-18T13:39:37;13.27;;;9.67;;
23802;SDS011;12082;51.786;6.018;2023-02-18T13:52:46;16.87;;;8.80;;
23802;SDS011;12082;51.786;6.018;2023-02-18T13:55:17;13.97;;;9.73;;
23802;SDS011;12082;51.786;6.018;2023-02-18T13:57:46;14.27;;;9.70;;
23802;SDS011;12082;51.786;6.018;2023-02-18T14:00:23;12.07;;;8.90;;
23802;SDS011;12082;51.786;6.018;2023-02-18T14:02:59;13.10;;;9.90;;
23802;SDS011;12082;51.786;6.018;2023-02-18T14:05:37;10.57;;;8.63;;
23802;SDS011;12082;51.786;6.018;2023-02-18T14:08:13;19.00;;;9.57;;
23802;SDS011;12082;51.786;6.018;2023-02-18T14:10:39;10.47;;;9.47;;
23802;SDS011;12082;51.786;6.018;2023-02-18T14:13:18;19.80;;;10.50;;
23802;SDS011;12082;51.786;6.018;2023-02-18T14:15:54;11.13;;;10.07;;
23802;SDS011;12082;51.786;6.018;2023-02-18T14:18:22;13.00;;;9.90;;
23802;SDS011;12082;51.786;6.018;2023-02-18T14:20:48;13.83;;;10.70;;
23802;SDS011;12082;51.786;6.018;2023-02-18T14:31:00;12.87;;;11.50;;
23802;SDS011;12082;51.786;6.018;2023-02-18T14:33:29;12.00;;;10.90;;
23802;SDS011;12082;51.786;6.018;2023-02-18T14:36:05;18.83;;;11.77;;
23802;SDS011;12082;51.786;6.018;2023-02-18T14:38:40;25.77;;;15.47;;
23802;SDS011;12082;51.786;6.018;2023-02-18T14:47:01;16.17;;;10.93;;
23802;SDS011;12082;51.786;6.018;2023-02-18T14:51:57;12.00;;;10.70;;
23802;SDS011;12082;51.786;6.018;2023-02-18T14:54:24;18.13;;;10.73;;
23802;SDS011;12082;51.786;6.018;2023-02-18T14:56:52;19.87;;;10.57;;
23802;SDS011;12082;51.786;6.018;2023-02-18T14:59:19;15.03;;;9.80;;
23802;SDS011;12082;51.786;6.018;2023-02-18T15:01:45;16.80;;;9.90;;
23802;SDS011;12082;51.786;6.018;2023-02-18T15:04:13;13.70;;;10.60;;
23802;SDS011;12082;51.786;6.018;2023-02-18T15:06:39;15.00;;;10.83;;
23802;SDS011;12082;51.786;6.018;2023-02-18T15:09:17;20.73;;;10.13;;
23802;SDS011;12082;51.786;6.018;2023-02-18T15:11:48;10.53;;;9.30;;
23802;SDS011;12082;51.786;6.018;2023-02-18T15:14:16;13.77;;;9.03;;
23802;SDS011;12082;51.786;6.018;2023-02-18T15:16:43;11.90;;;9.10;;
23802;SDS011;12082;51.786;6.018;2023-02-18T15:19:14;10.97;;;8.60;;
23802;SDS011;12082;51.786;6.018;2023-02-18T15:21:43;10.13;;;8.33;;
23802;SDS011;12082;51.786;6.018;2023-02-18T15:24:52;10.80;;;8.80;;
23802;SDS011;12082;51.786;6.018;2023-02-18T15:26:59;14.27;;;10.33;;
23802;SDS011;12082;51.786;6.018;2023-02-18T15:29:27;11.00;;;8.93;;
23802;SDS011;12082;51.786;6.018;2023-02-18T15:31:55;13.27;;;8.73;;
23802;SDS011;12082;51.786;6.018;2023-02-18T15:36:54;13.43;;;8.33;;
23802;SDS011;12082;51.786;6.018;2023-02-18T15:39:20;14.80;;;8.27;;
23802;SDS011;12082;51.786;6.018;2023-02-18T15:41:50;13.67;;;8.50;;
23802;SDS011;12082;51.786;6.018;2023-02-18T15:44:18;12.70;;;9.60;;
23802;SDS011;12082;51.786;6.018;2023-02-18T15:46:45;9.73;;;8.73;;
23802;SDS011;12082;51.786;6.018;2023-02-18T15:49:11;11.47;;;8.70;;
23802;SDS011;12082;51.786;6.018;2023-02-18T15:51:38;9.33;;;8.43;;
23802;SDS011;12082;51.786;6.018;2023-02-18T15:54:11;11.97;;;8.73;;
23802;SDS011;12082;51.786;6.018;2023-02-18T15:56:39;12.87;;;10.47;;
23802;SDS011;12082;51.786;6.018;2023-02-18T16:01:54;11.33;;;8.53;;
23802;SDS011;12082;51.786;6.018;2023-02-18T16:04:21;11.80;;;8.30;;
23802;SDS011;12082;51.786;6.018;2023-02-18T16:06:49;10.13;;;8.57;;
23802;SDS011;12082;51.786;6.018;2023-02-18T16:09:18;12.20;;;9.30;;
23802;SDS011;12082;51.786;6.018;2023-02-18T16:11:46;19.10;;;12.57;;
23802;SDS011;12082;51.786;6.018;2023-02-18T16:14:23;20.33;;;12.47;;
23802;SDS011;12082;51.786;6.018;2023-02-18T16:17:04;14.50;;;10.00;;
23802;SDS011;12082;51.786;6.018;2023-02-18T16:19:31;12.10;;;9.17;;
23802;SDS011;12082;51.786;6.018;2023-02-18T16:21:57;11.27;;;8.63;;
23802;SDS011;12082;51.786;6.018;2023-02-18T16:24:28;12.07;;;8.57;;
23802;SDS011;12082;51.786;6.018;2023-02-18T16:26:57;9.83;;;8.83;;
23802;SDS011;12082;51.786;6.018;2023-02-18T16:29:25;15.77;;;9.20;;
23802;SDS011;12082;51.786;6.018;2023-02-18T16:31:51;15.43;;;9.70;;
23802;SDS011;12082;51.786;6.018;2023-02-18T16:34:17;14.27;;;10.37;;
23802;SDS011;12082;51.786;6.018;2023-02-18T16:36:43;11.30;;;9.90;;
23802;SDS011;12082;51.786;6.018;2023-02-18T16:39:29;13.57;;;10.67;;
23802;SDS011;12082;51.786;6.018;2023-02-18T16:41:57;17.90;;;10.63;;
23802;SDS011;12082;51.786;6.018;2023-02-18T16:44:23;16.67;;;9.63;;
23802;SDS011;12082;51.786;6.018;2023-02-18T16:46:49;14.47;;;9.87;;